sensor_id;sensor_type;location;lat;lon;timestamp;P1;durP1;ratioP1;P2;durP2;ratioP2
16262;SDS011;8239;48.594;8.598;2023-05-16T00:00:11;10.77;;;8.03;;
16262;SDS011;8239;48.594;8.598;2023-05-16T00:02:38;8.53;;;7.63;;
16262;SDS011;8239;48.594;8.598;2023-05-16T00:05:06;8.47;;;7.67;;
16262;SDS011;8239;48.594;8.598;2023-05-16T00:07:36;9.47;;;8.50;;
16262;SDS011;8239;48.594;8.598;2023-05-16T00:10:03;9.93;;;8.10;;
16262;SDS011;8239;48.594;8.598;2023-05-16T00:12:30;10.10;;;8.97;;
16262;SDS011;8239;48.594;8.598;2023-05-16T00:14:58;10.20;;;8.73;;
16262;SDS011;8239;48.594;8.598;2023-05-16T00:17:25;11.37;;;9.93;;
16262;SDS011;8239;48.594;8.598;2023-05-16T00:19:53;15.13;;;12.07;;
16262;SDS011;8239;48.594;8.598;2023-05-16T00:22:22;10.87;;;9.27;;
16262;SDS011;8239;48.594;8.598;2023-05-16T00:24:50;8.50;;;7.70;;
16262;SDS011;8239;48.594;8.598;2023-05-16T00:27:17;9.20;;;8.20;;
16262;SDS011;8239;48.594;8.598;2023-05-16T00:29:45;8.97;;;8.07;;
16262;SDS011;8239;48.594;8.598;2023-05-16T00:32:12;11.03;;;8.13;;
16262;SDS011;8239;48.594;8.598;2023-05-16T00:34:39;8.80;;;7.90;;
16262;SDS011;8239;48.594;8.598;2023-05-16T00:37:06;11.57;;;7.83;;
16262;SDS011;8239;48.594;8.598;2023-05-16T00:39:33;10.33;;;8.50;;
16262;SDS011;8239;48.594;8.598;2023-05-16T00:42:01;9.90;;;8.90;;
16262;SDS011;8239;48.594;8.598;2023-05-16T00:44:28;9.80;;;8.80;;
16262;SDS011;8239;48.594;8.598;2023-05-16T00:46:55;10.20;;;8.90;;
16262;SDS011;8239;48.594;8.598;2023-05-16T00:49:24;12.03;;;9.00;;
16262;SDS011;8239;48.594;8.598;2023-05-16T00:51:51;12.87;;;9.67;;
16262;SDS011;8239;48.594;8.598;2023-05-16T00:54:19;15.03;;;11.60;;
16262;SDS011;8239;48.594;8.598;2023-05-16T00:56:50;23.47;;;18.23;;
16262;SDS011;8239;48.594;8.598;2023-05-16T00:59:18;32.07;;;20.73;;
16262;SDS011;8239;48.594;8.598;2023-05-16T01:01:45;30.87;;;20.00;;
16262;SDS011;8239;48.594;8.598;2023-05-16T01:04:13;28.13;;;21.37;;
16262;SDS011;8239;48.594;8.598;2023-05-16T01:06:40;30.37;;;21.40;;
16262;SDS011;8239;48.594;8.598;2023-05-16T01:09:07;30.27;;;21.67;;
16262;SDS011;8239;48.594;8.598;2023-05-16T01:11:35;28.67;;;21.47;;
16262;SDS011;8239;48.594;8.598;2023-05-16T01:14:16;26.97;;;20.93;;
16262;SDS011;8239;48.594;8.598;2023-05-16T01:16:53;29.10;;;19.57;;
16262;SDS011;8239;48.594;8.598;2023-05-16T01:19:43;23.13;;;16.23;;
16262;SDS011;8239;48.594;8.598;2023-05-16T01:22:25;24.33;;;17.90;;
16262;SDS011;8239;48.594;8.598;2023-05-16T01:25:00;18.90;;;15.20;;
16262;SDS011;8239;48.594;8.598;2023-05-16T01:27:38;24.30;;;17.70;;
16262;SDS011;8239;48.594;8.598;2023-05-16T01:30:13;33.00;;;22.73;;
16262;SDS011;8239;48.594;8.598;2023-05-16T01:32:41;18.47;;;13.90;;
16262;SDS011;8239;48.594;8.598;2023-05-16T01:35:08;24.27;;;17.10;;
16262;SDS011;8239;48.594;8.598;2023-05-16T01:37:38;27.37;;;18.57;;
16262;SDS011;8239;48.594;8.598;2023-05-16T01:40:11;26.13;;;19.60;;
16262;SDS011;8239;48.594;8.598;2023-05-16T01:42:43;23.60;;;17.37;;
16262;SDS011;8239;48.594;8.598;2023-05-16T01:45:13;23.00;;;16.53;;
16262;SDS011;8239;48.594;8.598;2023-05-16T01:47:49;25.17;;;17.17;;
16262;SDS011;8239;48.594;8.598;2023-05-16T01:50:23;25.20;;;17.07;;
16262;SDS011;8239;48.594;8.598;2023-05-16T01:52:54;27.33;;;18.60;;
16262;SDS011;8239;48.594;8.598;2023-05-16T01:55:28;31.67;;;21.40;;
16262;SDS011;8239;48.594;8.598;2023-05-16T01:58:03;31.33;;;21.73;;
16262;SDS011;8239;48.594;8.598;2023-05-16T02:00:32;32.43;;;22.37;;
16262;SDS011;8239;48.594;8.598;2023-05-16T02:03:00;33.47;;;23.00;;
16262;SDS011;8239;48.594;8.598;2023-05-16T02:05:27;35.53;;;21.93;;
16262;SDS011;8239;48.594;8.598;2023-05-16T02:07:53;34.37;;;23.20;;
16262;SDS011;8239;48.594;8.598;2023-05-16T02:10:21;33.47;;;22.33;;
16262;SDS011;8239;48.594;8.598;2023-05-16T02:12:49;34.37;;;23.40;;
16262;SDS011;8239;48.594;8.598;2023-05-16T02:15:17;36.43;;;23.93;;
16262;SDS011;8239;48.594;8.598;2023-05-16T02:17:45;37.13;;;24.33;;
16262;SDS011;8239;48.594;8.598;2023-05-16T02:20:12;35.33;;;23.83;;
16262;SDS011;8239;48.594;8.598;2023-05-16T02:22:39;39.33;;;24.77;;
16262;SDS011;8239;48.594;8.598;2023-05-16T02:25:08;42.07;;;26.00;;
16262;SDS011;8239;48.594;8.598;2023-05-16T02:27:35;40.77;;;26.53;;
16262;SDS011;8239;48.594;8.598;2023-05-16T02:30:06;39.93;;;26.43;;
16262;SDS011;8239;48.594;8.598;2023-05-16T02:32:35;43.17;;;27.23;;
16262;SDS011;8239;48.594;8.598;2023-05-16T02:35:02;44.60;;;27.17;;
16262;SDS011;8239;48.594;8.598;2023-05-16T02:37:30;41.10;;;26.40;;
16262;SDS011;8239;48.594;8.598;2023-05-16T02:39:57;48.83;;;29.33;;
16262;SDS011;8239;48.594;8.598;2023-05-16T02:42:24;51.53;;;30.13;;
16262;SDS011;8239;48.594;8.598;2023-05-16T02:44:52;52.17;;;31.53;;
16262;SDS011;8239;48.594;8.598;2023-05-16T02:47:19;54.43;;;30.97;;
16262;SDS011;8239;48.594;8.598;2023-05-16T02:49:47;50.37;;;30.33;;
16262;SDS011;8239;48.594;8.598;2023-05-16T02:52:16;53.43;;;30.03;;
16262;SDS011;8239;48.594;8.598;2023-05-16T02:54:43;56.20;;;31.67;;
16262;SDS011;8239;48.594;8.598;2023-05-16T02:57:10;53.13;;;31.77;;
16262;SDS011;8239;48.594;8.598;2023-05-16T02:59:37;53.80;;;32.07;;
16262;SDS011;8239;48.594;8.598;2023-05-16T03:02:04;51.83;;;30.97;;
16262;SDS011;8239;48.594;8.598;2023-05-16T03:04:31;51.10;;;29.73;;
16262;SDS011;8239;48.594;8.598;2023-05-16T03:07:00;54.80;;;31.53;;
16262;SDS011;8239;48.594;8.598;2023-05-16T03:09:27;52.47;;;30.87;;
16262;SDS011;8239;48.594;8.598;2023-05-16T03:11:54;53.67;;;31.87;;
16262;SDS011;8239;48.594;8.598;2023-05-16T03:14:20;55.43;;;32.13;;
16262;SDS011;8239;48.594;8.598;2023-05-16T03:16:47;52.10;;;31.53;;
16262;SDS011;8239;48.594;8.598;2023-05-16T03:19:14;52.30;;;32.00;;
16262;SDS011;8239;48.594;8.598;2023-05-16T03:21:41;56.33;;;32.80;;
16262;SDS011;8239;48.594;8.598;2023-05-16T03:24:10;56.13;;;32.97;;
16262;SDS011;8239;48.594;8.598;2023-05-16T03:26:37;57.77;;;33.23;;
16262;SDS011;8239;48.594;8.598;2023-05-16T03:29:03;54.77;;;31.47;;
16262;SDS011;8239;48.594;8.598;2023-05-16T03:31:30;53.77;;;31.67;;
16262;SDS011;8239;48.594;8.598;2023-05-16T03:33:58;55.27;;;32.43;;
16262;SDS011;8239;48.594;8.598;2023-05-16T03:36:25;53.63;;;32.57;;
16262;SDS011;8239;48.594;8.598;2023-05-16T03:38:52;53.00;;;31.13;;
16262;SDS011;8239;48.594;8.598;2023-05-16T03:41:21;53.03;;;30.83;;
16262;SDS011;8239;48.594;8.598;2023-05-16T03:43:48;52.53;;;31.33;;
16262;SDS011;8239;48.594;8.598;2023-05-16T03:46:15;52.73;;;32.33;;
16262;SDS011;8239;48.594;8.598;2023-05-16T03:48:43;51.33;;;30.53;;
16262;SDS011;8239;48.594;8.598;2023-05-16T03:51:10;56.20;;;31.93;;
16262;SDS011;8239;48.594;8.598;2023-05-16T03:53:37;52.70;;;31.20;;
16262;SDS011;8239;48.594;8.598;2023-05-16T03:56:04;54.73;;;32.13;;
16262;SDS011;8239;48.594;8.598;2023-05-16T03:58:33;56.30;;;31.70;;
16262;SDS011;8239;48.594;8.598;2023-05-16T04:01:00;50.77;;;30.20;;
16262;SDS011;8239;48.594;8.598;2023-05-16T04:03:29;50.93;;;30.00;;
16262;SDS011;8239;48.594;8.598;2023-05-16T04:05:58;47.07;;;28.27;;
16262;SDS011;8239;48.594;8.598;2023-05-16T04:08:25;44.93;;;26.33;;
16262;SDS011;8239;48.594;8.598;2023-05-16T04:10:52;42.00;;;25.20;;
16262;SDS011;8239;48.594;8.598;2023-05-16T04:13:20;36.37;;;21.83;;
16262;SDS011;8239;48.594;8.598;2023-05-16T04:15:48;36.00;;;21.67;;
16262;SDS011;8239;48.594;8.598;2023-05-16T04:18:15;33.90;;;21.33;;
16262;SDS011;8239;48.594;8.598;2023-05-16T04:20:42;33.80;;;20.77;;
16262;SDS011;8239;48.594;8.598;2023-05-16T04:23:11;35.73;;;20.93;;
16262;SDS011;8239;48.594;8.598;2023-05-16T04:25:39;30.43;;;19.23;;
16262;SDS011;8239;48.594;8.598;2023-05-16T04:28:07;30.67;;;18.83;;
16262;SDS011;8239;48.594;8.598;2023-05-16T04:30:34;29.03;;;18.43;;
16262;SDS011;8239;48.594;8.598;2023-05-16T04:33:03;24.60;;;15.93;;
16262;SDS011;8239;48.594;8.598;2023-05-16T04:35:30;25.47;;;16.40;;
16262;SDS011;8239;48.594;8.598;2023-05-16T04:37:57;25.47;;;15.87;;
16262;SDS011;8239;48.594;8.598;2023-05-16T04:40:24;23.00;;;14.70;;
16262;SDS011;8239;48.594;8.598;2023-05-16T04:42:51;20.50;;;13.17;;
16262;SDS011;8239;48.594;8.598;2023-05-16T04:45:19;18.63;;;13.23;;
16262;SDS011;8239;48.594;8.598;2023-05-16T04:47:46;18.33;;;12.60;;
16262;SDS011;8239;48.594;8.598;2023-05-16T04:50:14;20.43;;;13.47;;
16262;SDS011;8239;48.594;8.598;2023-05-16T04:52:42;22.03;;;13.63;;
16262;SDS011;8239;48.594;8.598;2023-05-16T04:55:09;20.00;;;12.87;;
16262;SDS011;8239;48.594;8.598;2023-05-16T04:57:36;20.17;;;13.30;;
16262;SDS011;8239;48.594;8.598;2023-05-16T05:00:05;17.23;;;12.30;;
16262;SDS011;8239;48.594;8.598;2023-05-16T05:02:34;16.37;;;10.93;;
16262;SDS011;8239;48.594;8.598;2023-05-16T05:05:02;16.20;;;10.60;;
16262;SDS011;8239;48.594;8.598;2023-05-16T05:07:30;15.90;;;10.77;;
16262;SDS011;8239;48.594;8.598;2023-05-16T05:09:58;15.27;;;10.43;;
16262;SDS011;8239;48.594;8.598;2023-05-16T05:12:25;16.13;;;10.47;;
16262;SDS011;8239;48.594;8.598;2023-05-16T05:14:52;13.43;;;9.53;;
16262;SDS011;8239;48.594;8.598;2023-05-16T05:17:19;12.50;;;9.80;;
16262;SDS011;8239;48.594;8.598;2023-05-16T05:19:47;14.13;;;9.93;;
16262;SDS011;8239;48.594;8.598;2023-05-16T05:22:14;14.03;;;9.47;;
16262;SDS011;8239;48.594;8.598;2023-05-16T05:24:43;12.40;;;8.63;;
16262;SDS011;8239;48.594;8.598;2023-05-16T05:27:10;12.97;;;9.27;;
16262;SDS011;8239;48.594;8.598;2023-05-16T05:29:37;13.97;;;9.03;;
16262;SDS011;8239;48.594;8.598;2023-05-16T05:32:04;14.13;;;8.87;;
16262;SDS011;8239;48.594;8.598;2023-05-16T05:34:31;14.37;;;9.93;;
16262;SDS011;8239;48.594;8.598;2023-05-16T05:36:58;17.07;;;10.70;;
16262;SDS011;8239;48.594;8.598;2023-05-16T05:39:25;16.00;;;10.60;;
16262;SDS011;8239;48.594;8.598;2023-05-16T05:41:53;16.23;;;10.90;;
16262;SDS011;8239;48.594;8.598;2023-05-16T05:44:20;15.70;;;10.87;;
16262;SDS011;8239;48.594;8.598;2023-05-16T05:46:47;16.93;;;10.57;;
16262;SDS011;8239;48.594;8.598;2023-05-16T05:49:15;18.10;;;11.87;;
16262;SDS011;8239;48.594;8.598;2023-05-16T05:51:42;17.10;;;11.67;;
16262;SDS011;8239;48.594;8.598;2023-05-16T05:54:09;18.50;;;12.00;;
16262;SDS011;8239;48.594;8.598;2023-05-16T05:56:36;18.67;;;12.40;;
16262;SDS011;8239;48.594;8.598;2023-05-16T05:59:04;19.47;;;12.13;;
16262;SDS011;8239;48.594;8.598;2023-05-16T06:01:31;16.87;;;11.57;;
16262;SDS011;8239;48.594;8.598;2023-05-16T06:03:58;17.83;;;11.60;;
16262;SDS011;8239;48.594;8.598;2023-05-16T06:06:25;19.70;;;12.30;;
16262;SDS011;8239;48.594;8.598;2023-05-16T06:08:53;20.37;;;12.67;;
16262;SDS011;8239;48.594;8.598;2023-05-16T06:11:20;24.60;;;15.03;;
16262;SDS011;8239;48.594;8.598;2023-05-16T06:13:49;26.07;;;15.57;;
16262;SDS011;8239;48.594;8.598;2023-05-16T06:16:17;23.90;;;14.67;;
16262;SDS011;8239;48.594;8.598;2023-05-16T06:18:45;22.37;;;14.17;;
16262;SDS011;8239;48.594;8.598;2023-05-16T06:21:12;23.53;;;14.90;;
16262;SDS011;8239;48.594;8.598;2023-05-16T06:23:39;22.33;;;13.40;;
16262;SDS011;8239;48.594;8.598;2023-05-16T06:26:06;19.33;;;12.77;;
16262;SDS011;8239;48.594;8.598;2023-05-16T06:28:33;20.37;;;13.63;;
16262;SDS011;8239;48.594;8.598;2023-05-16T06:31:00;21.77;;;12.93;;
16262;SDS011;8239;48.594;8.598;2023-05-16T06:33:29;20.57;;;12.30;;
16262;SDS011;8239;48.594;8.598;2023-05-16T06:35:56;17.67;;;11.13;;
16262;SDS011;8239;48.594;8.598;2023-05-16T06:38:23;15.97;;;10.43;;
16262;SDS011;8239;48.594;8.598;2023-05-16T06:40:50;15.10;;;10.10;;
16262;SDS011;8239;48.594;8.598;2023-05-16T06:43:17;12.43;;;8.80;;
16262;SDS011;8239;48.594;8.598;2023-05-16T06:45:44;12.33;;;8.90;;
16262;SDS011;8239;48.594;8.598;2023-05-16T06:48:12;10.73;;;7.90;;
16262;SDS011;8239;48.594;8.598;2023-05-16T06:50:41;9.00;;;6.93;;
16262;SDS011;8239;48.594;8.598;2023-05-16T06:53:12;8.23;;;6.07;;
16262;SDS011;8239;48.594;8.598;2023-05-16T06:55:39;7.47;;;5.57;;
16262;SDS011;8239;48.594;8.598;2023-05-16T06:58:06;6.17;;;4.70;;
16262;SDS011;8239;48.594;8.598;2023-05-16T07:00:33;4.87;;;3.80;;
16262;SDS011;8239;48.594;8.598;2023-05-16T07:03:00;4.80;;;3.80;;
16262;SDS011;8239;48.594;8.598;2023-05-16T07:05:28;4.60;;;3.53;;
16262;SDS011;8239;48.594;8.598;2023-05-16T07:07:56;4.30;;;3.47;;
16262;SDS011;8239;48.594;8.598;2023-05-16T07:10:23;3.10;;;2.80;;
16262;SDS011;8239;48.594;8.598;2023-05-16T07:12:51;3.67;;;2.97;;
16262;SDS011;8239;48.594;8.598;2023-05-16T07:15:18;3.67;;;3.10;;
16262;SDS011;8239;48.594;8.598;2023-05-16T07:17:45;3.57;;;3.27;;
16262;SDS011;8239;48.594;8.598;2023-05-16T07:20:12;3.50;;;3.20;;
16262;SDS011;8239;48.594;8.598;2023-05-16T07:22:39;3.20;;;2.90;;
16262;SDS011;8239;48.594;8.598;2023-05-16T07:25:08;3.00;;;2.70;;
16262;SDS011;8239;48.594;8.598;2023-05-16T07:27:37;2.97;;;2.67;;
16262;SDS011;8239;48.594;8.598;2023-05-16T07:30:05;3.17;;;2.87;;
16262;SDS011;8239;48.594;8.598;2023-05-16T07:32:34;2.97;;;2.67;;
16262;SDS011;8239;48.594;8.598;2023-05-16T07:35:02;3.00;;;2.70;;
16262;SDS011;8239;48.594;8.598;2023-05-16T07:37:29;2.80;;;2.60;;
16262;SDS011;8239;48.594;8.598;2023-05-16T07:39:56;2.77;;;2.20;;
16262;SDS011;8239;48.594;8.598;2023-05-16T07:42:24;2.37;;;2.10;;
16262;SDS011;8239;48.594;8.598;2023-05-16T07:44:51;2.33;;;2.13;;
16262;SDS011;8239;48.594;8.598;2023-05-16T07:47:18;2.33;;;2.00;;
16262;SDS011;8239;48.594;8.598;2023-05-16T07:49:45;2.77;;;2.33;;
16262;SDS011;8239;48.594;8.598;2023-05-16T07:52:12;2.77;;;2.30;;
16262;SDS011;8239;48.594;8.598;2023-05-16T07:54:39;3.50;;;2.80;;
16262;SDS011;8239;48.594;8.598;2023-05-16T07:57:06;3.70;;;2.97;;
16262;SDS011;8239;48.594;8.598;2023-05-16T07:59:35;3.00;;;2.70;;
16262;SDS011;8239;48.594;8.598;2023-05-16T08:02:02;5.83;;;3.97;;
16262;SDS011;8239;48.594;8.598;2023-05-16T08:04:29;5.70;;;4.57;;
16262;SDS011;8239;48.594;8.598;2023-05-16T08:06:56;7.57;;;5.00;;
16262;SDS011;8239;48.594;8.598;2023-05-16T08:09:23;7.90;;;5.60;;
16262;SDS011;8239;48.594;8.598;2023-05-16T08:11:50;7.37;;;5.63;;
16262;SDS011;8239;48.594;8.598;2023-05-16T08:14:17;7.00;;;5.37;;
16262;SDS011;8239;48.594;8.598;2023-05-16T08:16:46;9.57;;;6.67;;
16262;SDS011;8239;48.594;8.598;2023-05-16T08:19:13;9.77;;;6.73;;
16262;SDS011;8239;48.594;8.598;2023-05-16T08:21:40;10.37;;;7.37;;
16262;SDS011;8239;48.594;8.598;2023-05-16T08:24:07;12.23;;;7.63;;
16262;SDS011;8239;48.594;8.598;2023-05-16T08:26:35;10.60;;;7.47;;
16262;SDS011;8239;48.594;8.598;2023-05-16T08:29:02;9.93;;;7.23;;
16262;SDS011;8239;48.594;8.598;2023-05-16T08:31:30;8.43;;;6.30;;
16262;SDS011;8239;48.594;8.598;2023-05-16T08:33:59;9.40;;;6.70;;
16262;SDS011;8239;48.594;8.598;2023-05-16T08:36:26;12.47;;;8.00;;
16262;SDS011;8239;48.594;8.598;2023-05-16T08:38:54;12.27;;;8.93;;
16262;SDS011;8239;48.594;8.598;2023-05-16T08:41:21;13.17;;;9.00;;
16262;SDS011;8239;48.594;8.598;2023-05-16T08:43:48;14.77;;;9.70;;
16262;SDS011;8239;48.594;8.598;2023-05-16T08:46:15;16.73;;;10.00;;
16262;SDS011;8239;48.594;8.598;2023-05-16T08:48:46;14.77;;;10.30;;
16262;SDS011;8239;48.594;8.598;2023-05-16T08:51:19;16.03;;;11.20;;
16262;SDS011;8239;48.594;8.598;2023-05-16T08:53:49;12.40;;;9.40;;
16262;SDS011;8239;48.594;8.598;2023-05-16T08:56:19;13.77;;;10.10;;
16262;SDS011;8239;48.594;8.598;2023-05-16T08:58:48;15.03;;;10.50;;
16262;SDS011;8239;48.594;8.598;2023-05-16T09:01:16;11.73;;;9.53;;
16262;SDS011;8239;48.594;8.598;2023-05-16T09:03:44;14.17;;;9.97;;
16262;SDS011;8239;48.594;8.598;2023-05-16T09:06:12;14.00;;;10.40;;
16262;SDS011;8239;48.594;8.598;2023-05-16T09:08:41;13.53;;;9.00;;
16262;SDS011;8239;48.594;8.598;2023-05-16T09:11:08;11.67;;;8.87;;
16262;SDS011;8239;48.594;8.598;2023-05-16T09:13:36;12.70;;;9.73;;
16262;SDS011;8239;48.594;8.598;2023-05-16T09:16:07;14.10;;;9.67;;
16262;SDS011;8239;48.594;8.598;2023-05-16T09:18:34;13.53;;;9.80;;
16262;SDS011;8239;48.594;8.598;2023-05-16T09:21:02;10.40;;;8.40;;
16262;SDS011;8239;48.594;8.598;2023-05-16T09:23:30;10.33;;;8.27;;
16262;SDS011;8239;48.594;8.598;2023-05-16T09:25:58;11.03;;;8.67;;
16262;SDS011;8239;48.594;8.598;2023-05-16T09:28:25;10.50;;;8.50;;
16262;SDS011;8239;48.594;8.598;2023-05-16T09:30:52;10.97;;;8.47;;
16262;SDS011;8239;48.594;8.598;2023-05-16T09:33:21;11.57;;;8.47;;
16262;SDS011;8239;48.594;8.598;2023-05-16T09:35:53;10.90;;;8.63;;
16262;SDS011;8239;48.594;8.598;2023-05-16T09:38:21;11.03;;;8.47;;
16262;SDS011;8239;48.594;8.598;2023-05-16T09:40:49;8.80;;;7.57;;
16262;SDS011;8239;48.594;8.598;2023-05-16T09:43:19;9.93;;;8.17;;
16262;SDS011;8239;48.594;8.598;2023-05-16T09:45:48;10.73;;;8.70;;
16262;SDS011;8239;48.594;8.598;2023-05-16T09:48:16;9.97;;;8.17;;
16262;SDS011;8239;48.594;8.598;2023-05-16T09:50:46;10.70;;;8.50;;
16262;SDS011;8239;48.594;8.598;2023-05-16T09:53:16;12.57;;;9.93;;
16262;SDS011;8239;48.594;8.598;2023-05-16T09:55:43;12.53;;;10.03;;
16262;SDS011;8239;48.594;8.598;2023-05-16T09:58:10;12.27;;;9.93;;
16262;SDS011;8239;48.594;8.598;2023-05-16T10:00:43;12.23;;;10.37;;
16262;SDS011;8239;48.594;8.598;2023-05-16T10:03:11;12.70;;;10.43;;
16262;SDS011;8239;48.594;8.598;2023-05-16T10:05:40;13.43;;;10.47;;
16262;SDS011;8239;48.594;8.598;2023-05-16T10:08:07;13.40;;;10.87;;
16262;SDS011;8239;48.594;8.598;2023-05-16T10:10:35;12.90;;;10.97;;
16262;SDS011;8239;48.594;8.598;2023-05-16T10:13:04;13.50;;;10.60;;
16262;SDS011;8239;48.594;8.598;2023-05-16T10:15:34;11.53;;;10.20;;
16262;SDS011;8239;48.594;8.598;2023-05-16T10:18:04;12.83;;;9.97;;
16262;SDS011;8239;48.594;8.598;2023-05-16T10:20:36;11.57;;;10.37;;
16262;SDS011;8239;48.594;8.598;2023-05-16T10:23:04;11.43;;;9.97;;
16262;SDS011;8239;48.594;8.598;2023-05-16T10:25:35;10.77;;;9.47;;
16262;SDS011;8239;48.594;8.598;2023-05-16T10:28:05;10.60;;;9.27;;
16262;SDS011;8239;48.594;8.598;2023-05-16T10:30:33;11.37;;;9.73;;
16262;SDS011;8239;48.594;8.598;2023-05-16T10:33:02;10.40;;;8.63;;
16262;SDS011;8239;48.594;8.598;2023-05-16T10:35:33;10.63;;;9.63;;
16262;SDS011;8239;48.594;8.598;2023-05-16T10:38:01;8.63;;;7.83;;
16262;SDS011;8239;48.594;8.598;2023-05-16T10:40:28;7.20;;;6.50;;
16262;SDS011;8239;48.594;8.598;2023-05-16T10:42:56;6.73;;;6.13;;
16262;SDS011;8239;48.594;8.598;2023-05-16T10:45:25;5.87;;;5.00;;
16262;SDS011;8239;48.594;8.598;2023-05-16T10:47:53;5.43;;;4.90;;
16262;SDS011;8239;48.594;8.598;2023-05-16T10:50:35;4.97;;;4.23;;
16262;SDS011;8239;48.594;8.598;2023-05-16T10:53:12;4.13;;;3.73;;
16262;SDS011;8239;48.594;8.598;2023-05-16T10:55:44;4.97;;;4.37;;
16262;SDS011;8239;48.594;8.598;2023-05-16T10:58:17;6.10;;;4.43;;
16262;SDS011;8239;48.594;8.598;2023-05-16T11:00:48;6.27;;;3.90;;
16262;SDS011;8239;48.594;8.598;2023-05-16T11:03:35;6.70;;;4.40;;
16262;SDS011;8239;48.594;8.598;2023-05-16T11:06:04;5.67;;;3.97;;
16262;SDS011;8239;48.594;8.598;2023-05-16T11:08:33;4.73;;;3.77;;
16262;SDS011;8239;48.594;8.598;2023-05-16T11:14:02;5.17;;;3.87;;
16262;SDS011;8239;48.594;8.598;2023-05-16T11:16:29;5.00;;;4.27;;
16262;SDS011;8239;48.594;8.598;2023-05-16T11:19:01;6.23;;;4.43;;
16262;SDS011;8239;48.594;8.598;2023-05-16T11:24:32;5.17;;;4.27;;
16262;SDS011;8239;48.594;8.598;2023-05-16T11:27:01;5.30;;;4.80;;
16262;SDS011;8239;48.594;8.598;2023-05-16T11:29:30;5.37;;;4.20;;
16262;SDS011;8239;48.594;8.598;2023-05-16T11:31:57;4.37;;;3.70;;
16262;SDS011;8239;48.594;8.598;2023-05-16T11:34:25;4.80;;;4.20;;
16262;SDS011;8239;48.594;8.598;2023-05-16T11:36:52;5.57;;;4.30;;
16262;SDS011;8239;48.594;8.598;2023-05-16T11:39:21;4.10;;;3.70;;
16262;SDS011;8239;48.594;8.598;2023-05-16T11:41:49;4.10;;;3.70;;
16262;SDS011;8239;48.594;8.598;2023-05-16T11:44:17;5.03;;;4.63;;
16262;SDS011;8239;48.594;8.598;2023-05-16T11:46:44;5.03;;;4.50;;
16262;SDS011;8239;48.594;8.598;2023-05-16T11:49:11;4.77;;;4.37;;
16262;SDS011;8239;48.594;8.598;2023-05-16T11:51:38;5.07;;;4.57;;
16262;SDS011;8239;48.594;8.598;2023-05-16T11:54:11;5.67;;;4.67;;
16262;SDS011;8239;48.594;8.598;2023-05-16T11:56:40;5.30;;;4.80;;
16262;SDS011;8239;48.594;8.598;2023-05-16T11:59:07;5.50;;;4.70;;
16262;SDS011;8239;48.594;8.598;2023-05-16T12:01:36;5.30;;;4.80;;
16262;SDS011;8239;48.594;8.598;2023-05-16T12:04:06;5.30;;;4.80;;
16262;SDS011;8239;48.594;8.598;2023-05-16T12:06:34;4.90;;;4.20;;
16262;SDS011;8239;48.594;8.598;2023-05-16T12:09:01;4.80;;;4.40;;
16262;SDS011;8239;48.594;8.598;2023-05-16T12:11:35;5.33;;;4.17;;
16262;SDS011;8239;48.594;8.598;2023-05-16T12:14:04;5.00;;;4.20;;
16262;SDS011;8239;48.594;8.598;2023-05-16T12:16:31;5.00;;;3.87;;
16262;SDS011;8239;48.594;8.598;2023-05-16T12:19:01;4.63;;;4.23;;
16262;SDS011;8239;48.594;8.598;2023-05-16T12:21:29;4.57;;;4.07;;
16262;SDS011;8239;48.594;8.598;2023-05-16T12:23:56;4.10;;;3.80;;
16262;SDS011;8239;48.594;8.598;2023-05-16T12:26:24;3.87;;;3.50;;
16262;SDS011;8239;48.594;8.598;2023-05-16T12:28:55;4.27;;;3.80;;
16262;SDS011;8239;48.594;8.598;2023-05-16T12:31:26;4.00;;;3.70;;
16262;SDS011;8239;48.594;8.598;2023-05-16T12:33:54;4.03;;;3.63;;
16262;SDS011;8239;48.594;8.598;2023-05-16T12:36:21;3.60;;;3.30;;
16262;SDS011;8239;48.594;8.598;2023-05-16T12:38:49;3.90;;;3.60;;
16262;SDS011;8239;48.594;8.598;2023-05-16T12:41:17;4.27;;;3.43;;
16262;SDS011;8239;48.594;8.598;2023-05-16T12:43:45;3.73;;;3.20;;
16262;SDS011;8239;48.594;8.598;2023-05-16T12:46:12;3.47;;;3.17;;
16262;SDS011;8239;48.594;8.598;2023-05-16T12:48:41;3.10;;;2.90;;
16262;SDS011;8239;48.594;8.598;2023-05-16T12:51:11;3.33;;;3.07;;
16262;SDS011;8239;48.594;8.598;2023-05-16T12:53:40;3.37;;;3.00;;
16262;SDS011;8239;48.594;8.598;2023-05-16T12:56:09;3.33;;;2.70;;
16262;SDS011;8239;48.594;8.598;2023-05-16T12:58:36;2.83;;;2.63;;
16262;SDS011;8239;48.594;8.598;2023-05-16T13:01:03;2.80;;;2.60;;
16262;SDS011;8239;48.594;8.598;2023-05-16T13:03:31;3.17;;;2.87;;
16262;SDS011;8239;48.594;8.598;2023-05-16T13:06:00;2.80;;;2.60;;
16262;SDS011;8239;48.594;8.598;2023-05-16T13:08:30;3.40;;;3.10;;
16262;SDS011;8239;48.594;8.598;2023-05-16T13:10:57;3.10;;;2.80;;
16262;SDS011;8239;48.594;8.598;2023-05-16T13:13:24;3.00;;;2.70;;
16262;SDS011;8239;48.594;8.598;2023-05-16T13:15:51;3.40;;;3.07;;
16262;SDS011;8239;48.594;8.598;2023-05-16T13:18:18;3.60;;;3.00;;
16262;SDS011;8239;48.594;8.598;2023-05-16T13:20:45;3.67;;;3.40;;
16262;SDS011;8239;48.594;8.598;2023-05-16T13:23:13;3.83;;;3.40;;
16262;SDS011;8239;48.594;8.598;2023-05-16T13:25:40;3.50;;;3.20;;
16262;SDS011;8239;48.594;8.598;2023-05-16T13:28:07;5.57;;;3.27;;
16262;SDS011;8239;48.594;8.598;2023-05-16T13:30:35;3.33;;;3.10;;
16262;SDS011;8239;48.594;8.598;2023-05-16T13:33:02;3.00;;;2.80;;
16262;SDS011;8239;48.594;8.598;2023-05-16T13:35:29;2.97;;;2.73;;
16262;SDS011;8239;48.594;8.598;2023-05-16T13:37:57;3.50;;;3.20;;
16262;SDS011;8239;48.594;8.598;2023-05-16T13:40:25;4.10;;;3.70;;
16262;SDS011;8239;48.594;8.598;2023-05-16T13:42:53;3.60;;;2.93;;
16262;SDS011;8239;48.594;8.598;2023-05-16T13:45:20;3.33;;;2.90;;
16262;SDS011;8239;48.594;8.598;2023-05-16T13:47:48;3.10;;;2.90;;
16262;SDS011;8239;48.594;8.598;2023-05-16T13:50:16;3.30;;;3.00;;
16262;SDS011;8239;48.594;8.598;2023-05-16T13:52:44;3.10;;;2.90;;
16262;SDS011;8239;48.594;8.598;2023-05-16T13:55:12;3.43;;;3.03;;
16262;SDS011;8239;48.594;8.598;2023-05-16T13:57:41;3.70;;;2.60;;
16262;SDS011;8239;48.594;8.598;2023-05-16T14:00:09;4.17;;;3.60;;
16262;SDS011;8239;48.594;8.598;2023-05-16T14:02:38;4.10;;;3.10;;
16262;SDS011;8239;48.594;8.598;2023-05-16T14:05:06;3.60;;;2.90;;
16262;SDS011;8239;48.594;8.598;2023-05-16T14:07:33;3.40;;;3.07;;
16262;SDS011;8239;48.594;8.598;2023-05-16T14:10:00;2.90;;;2.50;;
16262;SDS011;8239;48.594;8.598;2023-05-16T14:12:28;3.43;;;2.90;;
16262;SDS011;8239;48.594;8.598;2023-05-16T14:14:56;2.97;;;2.77;;
16262;SDS011;8239;48.594;8.598;2023-05-16T14:17:24;3.50;;;3.03;;
16262;SDS011;8239;48.594;8.598;2023-05-16T14:19:51;4.13;;;3.10;;
16262;SDS011;8239;48.594;8.598;2023-05-16T14:22:18;3.73;;;2.63;;
16262;SDS011;8239;48.594;8.598;2023-05-16T14:24:46;2.77;;;2.57;;
16262;SDS011;8239;48.594;8.598;2023-05-16T14:27:13;3.37;;;3.00;;
16262;SDS011;8239;48.594;8.598;2023-05-16T14:29:41;3.47;;;2.80;;
16262;SDS011;8239;48.594;8.598;2023-05-16T14:32:10;4.43;;;3.20;;
16262;SDS011;8239;48.594;8.598;2023-05-16T14:34:38;4.33;;;3.20;;
16262;SDS011;8239;48.594;8.598;2023-05-16T14:37:05;3.50;;;3.20;;
16262;SDS011;8239;48.594;8.598;2023-05-16T14:39:33;4.77;;;3.40;;
16262;SDS011;8239;48.594;8.598;2023-05-16T14:42:00;4.83;;;3.40;;
16262;SDS011;8239;48.594;8.598;2023-05-16T14:44:27;4.80;;;3.60;;
16262;SDS011;8239;48.594;8.598;2023-05-16T14:46:55;3.73;;;3.43;;
16262;SDS011;8239;48.594;8.598;2023-05-16T14:49:24;6.30;;;3.60;;
16262;SDS011;8239;48.594;8.598;2023-05-16T14:51:51;6.03;;;4.00;;
16262;SDS011;8239;48.594;8.598;2023-05-16T14:54:18;6.57;;;3.93;;
16262;SDS011;8239;48.594;8.598;2023-05-16T14:56:45;6.50;;;4.00;;
16262;SDS011;8239;48.594;8.598;2023-05-16T14:59:12;5.70;;;3.83;;